sensor_id;sensor_type;location;lat;lon;timestamp;pressure;altitude;pressure_sealevel;temperature;humidity
35121;BME280;21297;52.008;4.576;2023-07-31T00:02:20;52170.19;;;-143.47;100.00
35121;BME280;21297;52.008;4.576;2023-07-31T00:05:05;52152.47;;;-143.47;100.00
35121;BME280;21297;52.008;4.576;2023-07-31T00:07:51;52140.66;;;-143.47;100.00
35121;BME280;21297;52.008;4.576;2023-07-31T00:10:40;52189.84;;;-143.47;100.00
35121;BME280;21297;52.008;4.576;2023-07-31T00:13:25;52113.09;;;-143.47;100.00
35121;BME280;21297;52.008;4.576;2023-07-31T00:16:16;52142.63;;;-143.47;100.00
35121;BME280;21297;52.008;4.576;2023-07-31T00:19:16;52109.16;;;-143.47;100.00
35121;BME280;21297;52.008;4.576;2023-07-31T00:22:02;52111.13;;;-143.47;100.00
35121;BME280;21297;52.008;4.576;2023-07-31T00:24:53;52119.00;;;-143.47;100.00
35121;BME280;21297;52.008;4.576;2023-07-31T00:27:51;52087.53;;;-143.47;100.00
35121;BME280;21297;52.008;4.576;2023-07-31T00:30:36;52136.72;;;-143.47;100.00
35121;BME280;21297;52.008;4.576;2023-07-31T00:33:22;52181.97;;;-143.47;100.00
35121;BME280;21297;52.008;4.576;2023-07-31T00:36:08;52124.91;;;-143.47;100.00
35121;BME280;21297;52.008;4.576;2023-07-31T00:38:53;52142.63;;;-143.47;100.00
35121;BME280;21297;52.008;4.576;2023-07-31T00:41:52;52109.16;;;-143.47;100.00
35121;BME280;21297;52.008;4.576;2023-07-31T00:44:38;52136.72;;;-143.47;100.00
35121;BME280;21297;52.008;4.576;2023-07-31T00:47:23;52120.97;;;-143.47;100.00
35121;BME280;21297;52.008;4.576;2023-07-31T00:50:09;52144.59;;;-143.47;100.00
35121;BME280;21297;52.008;4.576;2023-07-31T00:53:01;52124.91;;;-143.47;100.00
35121;BME280;21297;52.008;4.576;2023-07-31T00:55:47;52124.91;;;-143.47;100.00
35121;BME280;21297;52.008;4.576;2023-07-31T00:58:32;52158.38;;;-143.47;100.00
35121;BME280;21297;52.008;4.576;2023-07-31T01:01:21;52128.84;;;-143.47;100.00
35121;BME280;21297;52.008;4.576;2023-07-31T01:04:07;52136.72;;;-143.47;100.00
35121;BME280;21297;52.008;4.576;2023-07-31T01:07:01;52152.47;;;-143.47;100.00
35121;BME280;21297;52.008;4.576;2023-07-31T01:09:49;52134.75;;;-143.47;100.00
35121;BME280;21297;52.008;4.576;2023-07-31T01:12:38;52026.50;;;-143.47;100.00
35121;BME280;21297;52.008;4.576;2023-07-31T01:15:24;52042.25;;;-143.47;100.00
35121;BME280;21297;52.008;4.576;2023-07-31T01:18:12;52032.41;;;-143.47;100.00
35121;BME280;21297;52.008;4.576;2023-07-31T01:21:02;51987.16;;;-143.47;100.00
35121;BME280;21297;52.008;4.576;2023-07-31T01:23:51;52020.59;;;-143.47;100.00
35121;BME280;21297;52.008;4.576;2023-07-31T01:26:53;52089.50;;;-143.47;100.00
35121;BME280;21297;52.008;4.576;2023-07-31T01:29:49;52079.66;;;-143.47;100.00
35121;BME280;21297;52.008;4.576;2023-07-31T01:32:35;52113.09;;;-143.47;100.00
35121;BME280;21297;52.008;4.576;2023-07-31T01:35:21;52119.00;;;-143.47;100.00
35121;BME280;21297;52.008;4.576;2023-07-31T01:38:07;52105.22;;;-143.47;100.00
35121;BME280;21297;52.008;4.576;2023-07-31T01:40:55;52093.41;;;-143.47;100.00
35121;BME280;21297;52.008;4.576;2023-07-31T01:43:41;52140.66;;;-143.47;100.00
35121;BME280;21297;52.008;4.576;2023-07-31T01:46:26;52132.78;;;-143.47;100.00
35121;BME280;21297;52.008;4.576;2023-07-31T01:49:12;52117.03;;;-143.47;100.00
35121;BME280;21297;52.008;4.576;2023-07-31T01:51:58;52111.13;;;-143.47;100.00
35121;BME280;21297;52.008;4.576;2023-07-31T01:54:43;52117.03;;;-143.47;100.00
35121;BME280;21297;52.008;4.576;2023-07-31T01:57:29;52140.66;;;-143.47;100.00
35121;BME280;21297;52.008;4.576;2023-07-31T02:00:14;52134.75;;;-143.47;100.00
35121;BME280;21297;52.008;4.576;2023-07-31T02:03:00;52132.78;;;-143.47;100.00
35121;BME280;21297;52.008;4.576;2023-07-31T02:05:46;52073.75;;;-143.47;100.00
35121;BME280;21297;52.008;4.576;2023-07-31T02:08:31;52081.63;;;-143.47;100.00
35121;BME280;21297;52.008;4.576;2023-07-31T02:11:17;52101.28;;;-143.47;100.00
35121;BME280;21297;52.008;4.576;2023-07-31T02:14:02;52085.56;;;-143.47;100.00
35121;BME280;21297;52.008;4.576;2023-07-31T02:16:48;52122.94;;;-143.47;100.00
35121;BME280;21297;52.008;4.576;2023-07-31T02:19:34;52115.06;;;-143.47;100.00
35121;BME280;21297;52.008;4.576;2023-07-31T02:22:19;52164.28;;;-143.47;100.00
35121;BME280;21297;52.008;4.576;2023-07-31T02:25:05;52122.94;;;-143.47;100.00
35121;BME280;21297;52.008;4.576;2023-07-31T02:27:50;52089.50;;;-143.47;100.00
35121;BME280;21297;52.008;4.576;2023-07-31T02:30:36;52067.84;;;-143.47;100.00
35121;BME280;21297;52.008;4.576;2023-07-31T02:33:22;52075.72;;;-143.47;100.00
35121;BME280;21297;52.008;4.576;2023-07-31T02:36:07;52093.41;;;-143.47;100.00
35121;BME280;21297;52.008;4.576;2023-07-31T02:38:53;52058.00;;;-143.47;99.46
35121;BME280;21297;52.008;4.576;2023-07-31T02:41:38;52061.94;;;-143.47;97.81
35121;BME280;21297;52.008;4.576;2023-07-31T02:44:24;51985.19;;;-143.47;95.95
35121;BME280;21297;52.008;4.576;2023-07-31T02:47:09;52065.88;;;-143.47;94.71
35121;BME280;21297;52.008;4.576;2023-07-31T02:49:55;52030.44;;;-143.47;93.75
35121;BME280;21297;52.008;4.576;2023-07-31T02:52:41;51959.59;;;-143.47;92.72
35121;BME280;21297;52.008;4.576;2023-07-31T02:55:28;51995.03;;;-143.47;92.49
35121;BME280;21297;52.008;4.576;2023-07-31T02:58:13;51989.13;;;-143.47;92.26
35121;BME280;21297;52.008;4.576;2023-07-31T03:00:59;52056.03;;;-143.47;91.49
35121;BME280;21297;52.008;4.576;2023-07-31T03:03:44;52026.50;;;-143.47;91.94
35121;BME280;21297;52.008;4.576;2023-07-31T03:06:30;52050.13;;;-143.47;90.78
35121;BME280;21297;52.008;4.576;2023-07-31T03:09:15;52002.91;;;-143.47;92.35
35121;BME280;21297;52.008;4.576;2023-07-31T03:12:01;52054.06;;;-143.47;91.23
35121;BME280;21297;52.008;4.576;2023-07-31T03:14:47;52042.25;;;-143.47;93.04
35121;BME280;21297;52.008;4.576;2023-07-31T03:17:32;52026.50;;;-143.47;92.31
35121;BME280;21297;52.008;4.576;2023-07-31T03:20:18;52067.84;;;-143.47;90.72
35121;BME280;21297;52.008;4.576;2023-07-31T03:23:03;52046.19;;;-143.47;91.04
35121;BME280;21297;52.008;4.576;2023-07-31T03:25:55;52000.94;;;-143.47;90.39
35121;BME280;21297;52.008;4.576;2023-07-31T03:28:42;52052.09;;;-143.47;91.00
35121;BME280;21297;52.008;4.576;2023-07-31T03:31:27;52077.69;;;-143.47;90.17
35121;BME280;21297;52.008;4.576;2023-07-31T03:34:13;52063.91;;;-143.47;88.92
35121;BME280;21297;52.008;4.576;2023-07-31T03:36:58;52067.84;;;-143.47;89.43
35121;BME280;21297;52.008;4.576;2023-07-31T03:39:44;52054.06;;;-143.47;90.58
35121;BME280;21297;52.008;4.576;2023-07-31T03:42:29;52061.94;;;-143.47;92.31
35121;BME280;21297;52.008;4.576;2023-07-31T03:45:15;52030.44;;;-143.47;93.32
35121;BME280;21297;52.008;4.576;2023-07-31T03:48:00;51975.34;;;-143.47;94.25
35121;BME280;21297;52.008;4.576;2023-07-31T03:50:46;51983.22;;;-143.47;96.11
35121;BME280;21297;52.008;4.576;2023-07-31T03:53:31;51991.09;;;-143.47;98.08
35121;BME280;21297;52.008;4.576;2023-07-31T03:56:17;51989.13;;;-143.47;99.79
35121;BME280;21297;52.008;4.576;2023-07-31T03:59:02;51981.25;;;-143.47;100.00
35121;BME280;21297;52.008;4.576;2023-07-31T04:01:48;51959.59;;;-143.47;100.00
35121;BME280;21297;52.008;4.576;2023-07-31T04:04:34;51916.31;;;-143.47;100.00
35121;BME280;21297;52.008;4.576;2023-07-31T04:07:19;51892.69;;;-143.47;100.00
35121;BME280;21297;52.008;4.576;2023-07-31T04:10:05;51900.56;;;-143.47;100.00
35121;BME280;21297;52.008;4.576;2023-07-31T04:12:50;51916.31;;;-143.47;100.00
35121;BME280;21297;52.008;4.576;2023-07-31T04:15:36;51884.81;;;-143.47;100.00
35121;BME280;21297;52.008;4.576;2023-07-31T04:18:21;51914.34;;;-143.47;100.00
35121;BME280;21297;52.008;4.576;2023-07-31T04:21:07;51902.53;;;-143.47;100.00
35121;BME280;21297;52.008;4.576;2023-07-31T04:23:52;51904.50;;;-143.47;100.00
35121;BME280;21297;52.008;4.576;2023-07-31T04:26:50;51941.88;;;-143.47;100.00
35121;BME280;21297;52.008;4.576;2023-07-31T04:29:36;51904.50;;;-143.47;100.00
35121;BME280;21297;52.008;4.576;2023-07-31T04:32:30;51926.16;;;-143.47;100.00
35121;BME280;21297;52.008;4.576;2023-07-31T04:35:16;51910.41;;;-143.47;100.00
35121;BME280;21297;52.008;4.576;2023-07-31T04:38:02;51888.75;;;-143.47;100.00
35121;BME280;21297;52.008;4.576;2023-07-31T04:40:47;51928.13;;;-143.47;100.00
35121;BME280;21297;52.008;4.576;2023-07-31T04:43:35;51945.81;;;-143.47;100.00
35121;BME280;21297;52.008;4.576;2023-07-31T04:46:24;51934.03;;;-143.47;100.00
35121;BME280;21297;52.008;4.576;2023-07-31T04:49:10;51920.25;;;-143.47;100.00
35121;BME280;21297;52.008;4.576;2023-07-31T04:51:55;51902.53;;;-143.47;100.00
35121;BME280;21297;52.008;4.576;2023-07-31T04:54:44;51939.91;;;-143.47;100.00
35121;BME280;21297;52.008;4.576;2023-07-31T05:00:47;51961.56;;;-143.47;100.00
35121;BME280;21297;52.008;4.576;2023-07-31T05:03:35;51922.22;;;-143.47;100.00
35121;BME280;21297;52.008;4.576;2023-07-31T05:09:51;51910.41;;;-143.47;100.00
35121;BME280;21297;52.008;4.576;2023-07-31T05:12:58;51967.47;;;-143.47;100.00
35121;BME280;21297;52.008;4.576;2023-07-31T05:15:46;51961.56;;;-143.47;100.00
35121;BME280;21297;52.008;4.576;2023-07-31T05:18:54;51989.13;;;-143.47;100.00
35121;BME280;21297;52.008;4.576;2023-07-31T05:21:40;51955.66;;;-143.47;100.00
35121;BME280;21297;52.008;4.576;2023-07-31T05:24:26;52034.38;;;-143.47;100.00
35121;BME280;21297;52.008;4.576;2023-07-31T05:27:14;52014.69;;;-143.47;100.00
35121;BME280;21297;52.008;4.576;2023-07-31T05:32:38;52026.50;;;-143.47;100.00
35121;BME280;21297;52.008;4.576;2023-07-31T05:35:39;52054.06;;;-143.47;100.00
35121;BME280;21297;52.008;4.576;2023-07-31T05:38:27;52044.22;;;-143.47;100.00
35121;BME280;21297;52.008;4.576;2023-07-31T05:41:13;52077.69;;;-143.47;100.00
35121;BME280;21297;52.008;4.576;2023-07-31T05:43:58;52089.50;;;-143.47;100.00
35121;BME280;21297;52.008;4.576;2023-07-31T05:46:44;52073.75;;;-143.47;100.00
35121;BME280;21297;52.008;4.576;2023-07-31T05:49:36;52093.41;;;-143.47;100.00
35121;BME280;21297;52.008;4.576;2023-07-31T05:52:40;52154.44;;;-143.47;100.00
35121;BME280;21297;52.008;4.576;2023-07-31T05:55:34;52148.53;;;-143.47;100.00
35121;BME280;21297;52.008;4.576;2023-07-31T06:01:48;52193.78;;;-143.47;100.00
35121;BME280;21297;52.008;4.576;2023-07-31T06:04:42;52174.13;;;-143.47;100.00
35121;BME280;21297;52.008;4.576;2023-07-31T06:07:30;52211.50;;;-143.47;100.00
35121;BME280;21297;52.008;4.576;2023-07-31T06:10:16;52203.63;;;-143.47;100.00
35121;BME280;21297;52.008;4.576;2023-07-31T06:13:02;52231.19;;;-143.47;100.00
35121;BME280;21297;52.008;4.576;2023-07-31T06:15:50;52223.31;;;-143.47;100.00
35121;BME280;21297;52.008;4.576;2023-07-31T06:18:39;52258.75;;;-143.47;100.00
35121;BME280;21297;52.008;4.576;2023-07-31T06:25:11;52331.56;;;-143.47;100.00
35121;BME280;21297;52.008;4.576;2023-07-31T06:28:09;52345.34;;;-143.47;100.00
35121;BME280;21297;52.008;4.576;2023-07-31T06:34:28;52288.25;;;-143.47;100.00
35121;BME280;21297;52.008;4.576;2023-07-31T06:40:49;52339.44;;;-143.47;100.00
35121;BME280;21297;52.008;4.576;2023-07-31T06:43:35;52378.78;;;-143.47;100.00
35121;BME280;21297;52.008;4.576;2023-07-31T06:46:23;52341.41;;;-143.47;100.00
35121;BME280;21297;52.008;4.576;2023-07-31T06:49:11;52327.63;;;-143.47;100.00
35121;BME280;21297;52.008;4.576;2023-07-31T06:52:14;52359.13;;;-143.47;100.00
35121;BME280;21297;52.008;4.576;2023-07-31T06:55:03;52392.56;;;-143.47;100.00
35121;BME280;21297;52.008;4.576;2023-07-31T06:57:53;52428.00;;;-143.47;100.00
35121;BME280;21297;52.008;4.576;2023-07-31T07:00:48;52414.22;;;-143.47;100.00
35121;BME280;21297;52.008;4.576;2023-07-31T07:03:44;52439.81;;;-143.47;100.00
35121;BME280;21297;52.008;4.576;2023-07-31T07:06:45;52457.53;;;-143.47;100.00
35121;BME280;21297;52.008;4.576;2023-07-31T07:09:47;52463.44;;;-143.47;100.00
35121;BME280;21297;52.008;4.576;2023-07-31T07:12:32;52487.03;;;-143.47;100.00
35121;BME280;21297;52.008;4.576;2023-07-31T07:15:21;52494.91;;;-143.47;100.00
35121;BME280;21297;52.008;4.576;2023-07-31T07:18:07;52508.69;;;-143.47;100.00
35121;BME280;21297;52.008;4.576;2023-07-31T07:21:15;52485.06;;;-143.47;100.00
35121;BME280;21297;52.008;4.576;2023-07-31T07:27:43;52463.44;;;-143.47;100.00
35121;BME280;21297;52.008;4.576;2023-07-31T07:33:48;52522.47;;;-143.47;100.00
35121;BME280;21297;52.008;4.576;2023-07-31T07:46:49;52591.34;;;-143.47;100.00
35121;BME280;21297;52.008;4.576;2023-07-31T07:49:37;52597.25;;;-143.47;100.00
35121;BME280;21297;52.008;4.576;2023-07-31T07:52:26;52648.44;;;-143.47;100.00
35121;BME280;21297;52.008;4.576;2023-07-31T07:55:16;52662.22;;;-143.47;100.00
35121;BME280;21297;52.008;4.576;2023-07-31T07:58:04;52664.19;;;-143.47;100.00
35121;BME280;21297;52.008;4.576;2023-07-31T08:00:50;52715.34;;;-143.47;100.00
35121;BME280;21297;52.008;4.576;2023-07-31T08:03:36;52703.53;;;-143.47;100.00
35121;BME280;21297;52.008;4.576;2023-07-31T08:06:30;52750.78;;;-143.47;100.00
35121;BME280;21297;52.008;4.576;2023-07-31T08:09:16;52737.00;;;-143.47;100.00
35121;BME280;21297;52.008;4.576;2023-07-31T08:12:02;52703.53;;;-143.47;100.00
35121;BME280;21297;52.008;4.576;2023-07-31T08:14:48;52738.97;;;-143.47;100.00
35121;BME280;21297;52.008;4.576;2023-07-31T08:17:34;52687.81;;;-143.47;100.00
35121;BME280;21297;52.008;4.576;2023-07-31T08:20:19;52691.75;;;-143.47;100.00
35121;BME280;21297;52.008;4.576;2023-07-31T08:23:23;52703.53;;;-143.47;100.00
35121;BME280;21297;52.008;4.576;2023-07-31T08:26:15;52723.22;;;-143.47;100.00
35121;BME280;21297;52.008;4.576;2023-07-31T08:29:01;52683.88;;;-143.47;100.00
35121;BME280;21297;52.008;4.576;2023-07-31T08:31:47;52744.88;;;-143.47;100.00
35121;BME280;21297;52.008;4.576;2023-07-31T08:34:35;52689.78;;;-143.47;100.00
35121;BME280;21297;52.008;4.576;2023-07-31T08:37:20;52737.00;;;-143.47;100.00
35121;BME280;21297;52.008;4.576;2023-07-31T08:40:12;52772.44;;;-143.47;100.00
35121;BME280;21297;52.008;4.576;2023-07-31T08:42:58;52803.94;;;-143.47;100.00
35121;BME280;21297;52.008;4.576;2023-07-31T08:45:47;52833.47;;;-143.47;100.00
35121;BME280;21297;52.008;4.576;2023-07-31T08:48:33;52839.38;;;-143.47;100.00
35121;BME280;21297;52.008;4.576;2023-07-31T08:51:23;52855.09;;;-143.47;100.00
35121;BME280;21297;52.008;4.576;2023-07-31T08:54:15;52819.69;;;-143.47;100.00
35121;BME280;21297;52.008;4.576;2023-07-31T08:57:19;52845.25;;;-143.47;100.00
35121;BME280;21297;52.008;4.576;2023-07-31T09:40:44;53012.59;;;-143.47;100.00
35121;BME280;21297;52.008;4.576;2023-07-31T09:43:33;52963.38;;;-143.47;100.00
35121;BME280;21297;52.008;4.576;2023-07-31T09:50:36;53042.09;;;-143.47;100.00
35121;BME280;21297;52.008;4.576;2023-07-31T09:57:13;52965.34;;;-143.47;100.00
35121;BME280;21297;52.008;4.576;2023-07-31T10:00:01;52973.22;;;-143.47;100.00
35121;BME280;21297;52.008;4.576;2023-07-31T10:02:48;52951.56;;;-143.47;100.00
35121;BME280;21297;52.008;4.576;2023-07-31T10:05:55;52975.19;;;-143.47;100.00
35121;BME280;21297;52.008;4.576;2023-07-31T10:08:42;53030.28;;;-143.47;100.00
35121;BME280;21297;52.008;4.576;2023-07-31T10:11:43;53071.63;;;-143.47;100.00
35121;BME280;21297;52.008;4.576;2023-07-31T10:14:50;53148.41;;;-143.47;100.00
35121;BME280;21297;52.008;4.576;2023-07-31T10:17:38;53185.81;;;-143.47;100.00
35121;BME280;21297;52.008;4.576;2023-07-31T10:20:24;53089.34;;;-143.47;100.00
35121;BME280;21297;52.008;4.576;2023-07-31T10:23:12;53053.91;;;-143.47;100.00
35121;BME280;21297;52.008;4.576;2023-07-31T10:26:01;53085.41;;;-143.47;100.00
35121;BME280;21297;52.008;4.576;2023-07-31T10:28:51;53038.16;;;-143.47;100.00
35121;BME280;21297;52.008;4.576;2023-07-31T10:31:38;53038.16;;;-143.47;100.00
35121;BME280;21297;52.008;4.576;2023-07-31T10:34:24;53018.50;;;-143.47;100.00
35121;BME280;21297;52.008;4.576;2023-07-31T10:37:30;53053.91;;;-143.47;100.00
35121;BME280;21297;52.008;4.576;2023-07-31T10:40:26;53067.69;;;-143.47;100.00
35121;BME280;21297;52.008;4.576;2023-07-31T10:43:24;53065.72;;;-143.47;100.00
35121;BME280;21297;52.008;4.576;2023-07-31T10:46:14;53140.53;;;-143.47;100.00
35121;BME280;21297;52.008;4.576;2023-07-31T10:49:08;53136.59;;;-143.47;100.00
35121;BME280;21297;52.008;4.576;2023-07-31T10:51:57;53089.34;;;-143.47;100.00
35121;BME280;21297;52.008;4.576;2023-07-31T10:54:42;53118.88;;;-143.47;100.00
35121;BME280;21297;52.008;4.576;2023-07-31T10:57:35;53112.97;;;-143.47;100.00
35121;BME280;21297;52.008;4.576;2023-07-31T11:00:29;53116.91;;;-143.47;100.00
35121;BME280;21297;52.008;4.576;2023-07-31T11:03:19;53193.69;;;-143.47;100.00
35121;BME280;21297;52.008;4.576;2023-07-31T11:06:10;53124.78;;;-143.47;100.00
35121;BME280;21297;52.008;4.576;2023-07-31T11:08:56;53071.63;;;-143.47;100.00
35121;BME280;21297;52.008;4.576;2023-07-31T11:11:46;53105.09;;;-143.47;100.00
35121;BME280;21297;52.008;4.576;2023-07-31T11:14:31;53197.63;;;-143.47;100.00
35121;BME280;21297;52.008;4.576;2023-07-31T11:17:17;53262.59;;;-143.47;100.00
35121;BME280;21297;52.008;4.576;2023-07-31T11:20:03;53321.63;;;-143.47;100.00
35121;BME280;21297;52.008;4.576;2023-07-31T11:22:52;53372.81;;;-143.47;100.00
35121;BME280;21297;52.008;4.576;2023-07-31T11:25:41;53250.78;;;-143.47;100.00
35121;BME280;21297;52.008;4.576;2023-07-31T11:28:31;53132.66;;;-143.47;100.00
35121;BME280;21297;52.008;4.576;2023-07-31T11:31:20;53235.03;;;-143.47;100.00
35121;BME280;21297;52.008;4.576;2023-07-31T11:34:06;53262.59;;;-143.47;100.00
35121;BME280;21297;52.008;4.576;2023-07-31T11:36:55;53235.03;;;-143.47;97.66
35121;BME280;21297;52.008;4.576;2023-07-31T11:39:41;53170.06;;;-143.47;98.15
35121;BME280;21297;52.008;4.576;2023-07-31T11:42:27;53209.44;;;-143.47;98.66
35121;BME280;21297;52.008;4.576;2023-07-31T11:45:12;53199.59;;;-143.47;97.95
35121;BME280;21297;52.008;4.576;2023-07-31T11:47:58;53300.00;;;-143.47;97.59
35121;BME280;21297;52.008;4.576;2023-07-31T11:50:44;53278.34;;;-143.47;97.49
35121;BME280;21297;52.008;4.576;2023-07-31T11:53:44;53164.16;;;-143.47;95.78
35121;BME280;21297;52.008;4.576;2023-07-31T11:56:31;53195.66;;;-143.47;97.46
35121;BME280;21297;52.008;4.576;2023-07-31T11:59:17;53148.41;;;-143.47;97.75
35121;BME280;21297;52.008;4.576;2023-07-31T12:02:03;53122.81;;;-143.47;97.26
35121;BME280;21297;52.008;4.576;2023-07-31T12:04:49;53107.06;;;-143.47;96.01
35121;BME280;21297;52.008;4.576;2023-07-31T12:07:52;53112.97;;;-143.47;97.20
35121;BME280;21297;52.008;4.576;2023-07-31T12:10:39;53187.78;;;-143.47;96.14
35121;BME280;21297;52.008;4.576;2023-07-31T12:13:26;53172.03;;;-143.47;96.61
35121;BME280;21297;52.008;4.576;2023-07-31T12:16:12;53203.53;;;-143.47;98.35
35121;BME280;21297;52.008;4.576;2023-07-31T12:18:58;53219.28;;;-143.47;99.05
35121;BME280;21297;52.008;4.576;2023-07-31T12:21:43;53174.00;;;-143.47;97.82
35121;BME280;21297;52.008;4.576;2023-07-31T12:24:29;53250.78;;;-143.47;95.29
35121;BME280;21297;52.008;4.576;2023-07-31T12:27:15;53327.53;;;-143.47;94.83
35121;BME280;21297;52.008;4.576;2023-07-31T12:30:04;53374.78;;;-143.47;93.43
35121;BME280;21297;52.008;4.576;2023-07-31T12:32:50;53394.47;;;-143.47;91.50
35121;BME280;21297;52.008;4.576;2023-07-31T12:35:46;53345.25;;;-143.47;92.51
35121;BME280;21297;52.008;4.576;2023-07-31T12:38:40;53282.28;;;-143.47;94.53
35121;BME280;21297;52.008;4.576;2023-07-31T12:45:02;53305.88;;;-143.47;96.22
35121;BME280;21297;52.008;4.576;2023-07-31T12:47:49;53235.03;;;-143.47;96.43
35121;BME280;21297;52.008;4.576;2023-07-31T12:50:36;53301.94;;;-143.47;95.51
35121;BME280;21297;52.008;4.576;2023-07-31T12:53:24;53219.28;;;-143.47;97.09
35121;BME280;21297;52.008;4.576;2023-07-31T12:56:10;53333.44;;;-143.47;97.25
35121;BME280;21297;52.008;4.576;2023-07-31T12:58:58;53357.06;;;-143.47;97.34
35121;BME280;21297;52.008;4.576;2023-07-31T13:01:44;53303.91;;;-143.47;96.61
35121;BME280;21297;52.008;4.576;2023-07-31T13:04:30;53209.44;;;-143.47;98.11
35121;BME280;21297;52.008;4.576;2023-07-31T13:07:15;53203.53;;;-143.47;98.94
35121;BME280;21297;52.008;4.576;2023-07-31T13:10:06;53197.63;;;-143.47;97.62
35121;BME280;21297;52.008;4.576;2023-07-31T13:12:55;53268.50;;;-143.47;100.00
35121;BME280;21297;52.008;4.576;2023-07-31T13:15:46;53201.56;;;-143.47;100.00
35121;BME280;21297;52.008;4.576;2023-07-31T13:18:32;53225.19;;;-143.47;100.00
35121;BME280;21297;52.008;4.576;2023-07-31T13:21:20;53237.00;;;-143.47;100.00
35121;BME280;21297;52.008;4.576;2023-07-31T13:24:08;53313.75;;;-143.47;100.00
35121;BME280;21297;52.008;4.576;2023-07-31T13:26:56;53427.94;;;-143.47;97.73
35121;BME280;21297;52.008;4.576;2023-07-31T13:29:42;53530.31;;;-143.47;96.01
35121;BME280;21297;52.008;4.576;2023-07-31T13:32:27;53429.91;;;-143.47;94.46
35121;BME280;21297;52.008;4.576;2023-07-31T13:35:13;53329.50;;;-143.47;94.23
35121;BME280;21297;52.008;4.576;2023-07-31T13:38:01;53278.34;;;-143.47;96.41
35121;BME280;21297;52.008;4.576;2023-07-31T13:40:47;53262.59;;;-143.47;97.18
35121;BME280;21297;52.008;4.576;2023-07-31T13:43:33;53209.44;;;-143.47;97.68
35121;BME280;21297;52.008;4.576;2023-07-31T13:46:19;53242.91;;;-143.47;99.67
35121;BME280;21297;52.008;4.576;2023-07-31T13:49:04;53183.84;;;-143.47;100.00
35121;BME280;21297;52.008;4.576;2023-07-31T13:51:50;53120.84;;;-143.47;100.00
35121;BME280;21297;52.008;4.576;2023-07-31T13:54:36;53160.22;;;-143.47;100.00
35121;BME280;21297;52.008;4.576;2023-07-31T13:57:21;53199.59;;;-143.47;100.00
35121;BME280;21297;52.008;4.576;2023-07-31T14:00:09;53219.28;;;-143.47;100.00
35121;BME280;21297;52.008;4.576;2023-07-31T14:02:55;53187.78;;;-143.47;100.00
35121;BME280;21297;52.008;4.576;2023-07-31T14:05:40;53172.03;;;-143.47;100.00
35121;BME280;21297;52.008;4.576;2023-07-31T14:08:26;53138.56;;;-143.47;100.00
35121;BME280;21297;52.008;4.576;2023-07-31T14:11:15;53166.13;;;-143.47;100.00
35121;BME280;21297;52.008;4.576;2023-07-31T14:14:01;53215.34;;;-143.47;100.00
35121;BME280;21297;52.008;4.576;2023-07-31T14:16:47;53229.13;;;-143.47;100.00
35121;BME280;21297;52.008;4.576;2023-07-31T14:19:33;53199.59;;;-143.47;100.00
35121;BME280;21297;52.008;4.576;2023-07-31T14:22:29;53174.00;;;-143.47;100.00
35121;BME280;21297;52.008;4.576;2023-07-31T14:25:15;53105.09;;;-143.47;100.00
35121;BME280;21297;52.008;4.576;2023-07-31T14:28:10;53083.44;;;-143.47;100.00
35121;BME280;21297;52.008;4.576;2023-07-31T14:38:46;53154.31;;;-143.47;100.00
35121;BME280;21297;52.008;4.576;2023-07-31T16:29:04;53199.59;;;-143.47;100.00
35121;BME280;21297;52.008;4.576;2023-07-31T16:31:50;53177.94;;;-143.47;100.00
35121;BME280;21297;52.008;4.576;2023-07-31T16:34:36;53179.91;;;-143.47;100.00
35121;BME280;21297;52.008;4.576;2023-07-31T16:37:25;53237.00;;;-143.47;100.00
35121;BME280;21297;52.008;4.576;2023-07-31T16:40:16;53185.81;;;-143.47;100.00
35121;BME280;21297;52.008;4.576;2023-07-31T16:43:05;53203.53;;;-143.47;100.00
35121;BME280;21297;52.008;4.576;2023-07-31T16:45:56;53215.34;;;-143.47;100.00
35121;BME280;21297;52.008;4.576;2023-07-31T16:48:41;53209.44;;;-143.47;100.00
35121;BME280;21297;52.008;4.576;2023-07-31T17:03:13;53166.13;;;-143.47;100.00
35121;BME280;21297;52.008;4.576;2023-07-31T17:44:55;53112.97;;;-143.47;100.00
35121;BME280;21297;52.008;4.576;2023-07-31T17:47:41;53073.59;;;-143.47;100.00
35121;BME280;21297;52.008;4.576;2023-07-31T17:50:26;53118.88;;;-143.47;100.00
35121;BME280;21297;52.008;4.576;2023-07-31T17:53:12;53087.38;;;-143.47;100.00
35121;BME280;21297;52.008;4.576;2023-07-31T17:56:03;53114.94;;;-143.47;100.00
35121;BME280;21297;52.008;4.576;2023-07-31T17:58:49;53097.22;;;-143.47;100.00
35121;BME280;21297;52.008;4.576;2023-07-31T18:01:41;53049.97;;;-143.47;100.00
35121;BME280;21297;52.008;4.576;2023-07-31T18:04:36;53061.78;;;-143.47;100.00
35121;BME280;21297;52.008;4.576;2023-07-31T18:07:29;53079.50;;;-143.47;100.00
35121;BME280;21297;52.008;4.576;2023-07-31T18:10:14;53028.31;;;-143.47;100.00
35121;BME280;21297;52.008;4.576;2023-07-31T18:13:03;53093.28;;;-143.47;100.00
35121;BME280;21297;52.008;4.576;2023-07-31T18:15:49;53053.91;;;-143.47;100.00
35121;BME280;21297;52.008;4.576;2023-07-31T18:18:34;52987.00;;;-143.47;100.00
35121;BME280;21297;52.008;4.576;2023-07-31T18:21:27;53022.44;;;-143.47;100.00
35121;BME280;21297;52.008;4.576;2023-07-31T18:24:12;52990.94;;;-143.47;100.00
35121;BME280;21297;52.008;4.576;2023-07-31T18:26:58;53010.63;;;-143.47;100.00
35121;BME280;21297;52.008;4.576;2023-07-31T18:29:44;52983.06;;;-143.47;100.00
35121;BME280;21297;52.008;4.576;2023-07-31T18:32:30;52983.06;;;-143.47;100.00
35121;BME280;21297;52.008;4.576;2023-07-31T18:35:19;53030.28;;;-143.47;100.00
35121;BME280;21297;52.008;4.576;2023-07-31T18:42:31;52973.22;;;-143.47;100.00
35121;BME280;21297;52.008;4.576;2023-07-31T18:45:35;52935.81;;;-143.47;100.00